BTK6851 WIBB-WIII
Flight info
| Callsign | BTK6851 |
|---|---|
| Flight time | 1h 19m |
| Altitude | 35000 |
| Route | ISROR T5 BUNIK |
| Aircraft | A320/M-SDE3FGHIRWY/LB1 |
Departure
| Time | 2026-04-21 02:45 |
|---|---|
| Airport | Sultan Syarif Kasim II International Airport / Roesmin Nurjadin AFB (WIBB) |
Arrival
| Time | 2026-04-21 04:04 |
|---|---|
| Airport | Soekarno-Hatta International Airport (WIII) |
| Time | Latitude | Longitude | Altitude | Speed | Heading |
|---|---|---|---|---|---|
| 2026-04-21 02:28 | 0.46480 | 101.44684 | 128 ft | 0 kts | 92° |
| 2026-04-21 02:37 | 0.46480 | 101.44683 | 127 ft | 1 kts | 92° |
| 2026-04-21 02:37 | 0.46481 | 101.44660 | 127 ft | 4 kts | 88° |
| 2026-04-21 02:38 | 0.46479 | 101.44633 | 126 ft | 4 kts | 81° |
| 2026-04-21 02:38 | 0.46472 | 101.44607 | 124 ft | 4 kts | 61° |
| 2026-04-21 02:38 | 0.46457 | 101.44591 | 128 ft | 3 kts | 5° |
| 2026-04-21 02:38 | 0.46450 | 101.44590 | 123 ft | 0 kts | 2° |
| 2026-04-21 02:40 | 0.46469 | 101.44591 | 126 ft | 5 kts | 2° |
| 2026-04-21 02:40 | 0.46500 | 101.44592 | 124 ft | 4 kts | 2° |
| 2026-04-21 02:40 | 0.46523 | 101.44593 | 124 ft | 3 kts | 2° |
| 2026-04-21 02:41 | 0.46539 | 101.44594 | 128 ft | 4 kts | 2° |
| 2026-04-21 02:41 | 0.46569 | 101.44595 | 136 ft | 4 kts | 2° |
| 2026-04-21 02:41 | 0.46592 | 101.44596 | 128 ft | 5 kts | 2° |
| 2026-04-21 02:41 | 0.46636 | 101.44551 | 125 ft | 12 kts | 270° |
| 2026-04-21 02:42 | 0.46642 | 101.44487 | 125 ft | 8 kts | 297° |
| 2026-04-21 02:42 | 0.46716 | 101.44469 | 130 ft | 13 kts | 2° |
| 2026-04-21 02:42 | 0.46804 | 101.44472 | 130 ft | 12 kts | 2° |
| 2026-04-21 02:42 | 0.46887 | 101.44475 | 129 ft | 12 kts | 2° |
| 2026-04-21 02:43 | 0.46964 | 101.44478 | 127 ft | 11 kts | 2° |
| 2026-04-21 02:43 | 0.47030 | 101.44499 | 127 ft | 9 kts | 28° |
| 2026-04-21 02:43 | 0.47074 | 101.44490 | 124 ft | 6 kts | 293° |
| 2026-04-21 02:43 | 0.47061 | 101.44481 | 126 ft | 1 kts | 180° |
| 2026-04-21 02:44 | 0.47058 | 101.44481 | 127 ft | 0 kts | 182° |
| 2026-04-21 02:44 | 0.47020 | 101.44479 | 128 ft | 28 kts | 182° |
| 2026-04-21 02:44 | 0.46553 | 101.44466 | 129 ft | 102 kts | 181° |
| 2026-04-21 02:44 | 0.45641 | 101.44438 | 126 ft | 158 kts | 182° |
| 2026-04-21 02:45 | 0.44486 | 101.44399 | 629 ft | 167 kts | 182° |
| 2026-04-21 02:45 | 0.43701 | 101.44373 | 1130 ft | 167 kts | 182° |
| 2026-04-21 02:45 | 0.42159 | 101.44383 | 2053 ft | 171 kts | 174° |
| 2026-04-21 02:45 | 0.41340 | 101.44529 | 2289 ft | 185 kts | 166° |
| 2026-04-21 02:46 | 0.40069 | 101.45020 | 2556 ft | 208 kts | 153° |
| 2026-04-21 02:46 | 0.38828 | 101.45896 | 2823 ft | 229 kts | 139° |
| 2026-04-21 02:46 | 0.37765 | 101.47179 | 3250 ft | 248 kts | 122° |
| 2026-04-21 02:46 | 0.36947 | 101.48722 | 3976 ft | 254 kts | 118° |
| 2026-04-21 02:47 | 0.36096 | 101.50341 | 4497 ft | 271 kts | 118° |
| 2026-04-21 02:47 | 0.35198 | 101.52031 | 5277 ft | 278 kts | 118° |
| 2026-04-21 02:47 | 0.34289 | 101.53741 | 6124 ft | 280 kts | 118° |
| 2026-04-21 02:47 | 0.33371 | 101.55472 | 6946 ft | 284 kts | 118° |
| 2026-04-21 02:48 | 0.32442 | 101.57222 | 7727 ft | 287 kts | 118° |
| 2026-04-21 02:48 | 0.31502 | 101.58995 | 8487 ft | 291 kts | 118° |
| 2026-04-21 02:48 | 0.30547 | 101.60794 | 9215 ft | 295 kts | 118° |
| 2026-04-21 02:48 | 0.29584 | 101.62615 | 9937 ft | 298 kts | 118° |
| 2026-04-21 02:49 | 0.28592 | 101.64492 | 10307 ft | 317 kts | 118° |
| 2026-04-21 02:49 | 0.27528 | 101.66507 | 10475 ft | 339 kts | 118° |
| 2026-04-21 02:49 | 0.26402 | 101.68643 | 10833 ft | 353 kts | 117° |
| 2026-04-21 02:49 | 0.25249 | 101.70825 | 11440 ft | 358 kts | 118° |
| 2026-04-21 02:50 | 0.24080 | 101.73033 | 12093 ft | 361 kts | 117° |
| 2026-04-21 02:50 | 0.22903 | 101.75257 | 12741 ft | 364 kts | 117° |
| 2026-04-21 02:50 | 0.21723 | 101.77489 | 13363 ft | 367 kts | 117° |
| 2026-04-21 02:50 | 0.20515 | 101.79769 | 13983 ft | 370 kts | 117° |
| 2026-04-21 02:51 | 0.19306 | 101.82053 | 14571 ft | 374 kts | 117° |
| 2026-04-21 02:51 | 0.18086 | 101.84357 | 15131 ft | 377 kts | 117° |
| 2026-04-21 02:51 | 0.16856 | 101.86684 | 15695 ft | 380 kts | 117° |
| 2026-04-21 02:51 | 0.15615 | 101.89029 | 16246 ft | 383 kts | 117° |
| 2026-04-21 02:52 | 0.14364 | 101.91397 | 16773 ft | 387 kts | 117° |
| 2026-04-21 02:52 | 0.13105 | 101.93781 | 17279 ft | 390 kts | 117° |
| 2026-04-21 02:52 | 0.11834 | 101.96184 | 17782 ft | 393 kts | 117° |
| 2026-04-21 02:52 | 0.10551 | 101.98606 | 18268 ft | 396 kts | 117° |
| 2026-04-21 02:53 | 0.09261 | 102.01044 | 18732 ft | 399 kts | 117° |
| 2026-04-21 02:53 | 0.07960 | 102.03503 | 19173 ft | 402 kts | 117° |
| 2026-04-21 02:53 | 0.06649 | 102.05991 | 19602 ft | 406 kts | 117° |
| 2026-04-21 02:53 | 0.05254 | 102.08451 | 20011 ft | 410 kts | 123° |
| 2026-04-21 02:54 | 0.03449 | 102.10671 | 20417 ft | 414 kts | 134° |
| 2026-04-21 02:54 | 0.01249 | 102.12537 | 20814 ft | 418 kts | 144° |
| 2026-04-21 02:54 | -0.01248 | 102.14046 | 21198 ft | 421 kts | 149° |
| 2026-04-21 02:54 | -0.03764 | 102.15495 | 21561 ft | 424 kts | 149° |
| 2026-04-21 02:55 | -0.06332 | 102.16979 | 21927 ft | 428 kts | 149° |
| 2026-04-21 02:55 | -0.08910 | 102.18476 | 22289 ft | 430 kts | 149° |
| 2026-04-21 02:55 | -0.11507 | 102.19986 | 22631 ft | 433 kts | 149° |
| 2026-04-21 02:55 | -0.14117 | 102.21508 | 22976 ft | 436 kts | 149° |
| 2026-04-21 02:56 | -0.16747 | 102.23040 | 23306 ft | 439 kts | 149° |
| 2026-04-21 02:56 | -0.22066 | 102.26123 | 23938 ft | 445 kts | 149° |
| 2026-04-21 02:56 | -0.24752 | 102.27677 | 24262 ft | 447 kts | 149° |
| 2026-04-21 02:57 | -0.27453 | 102.29242 | 24584 ft | 449 kts | 149° |
| 2026-04-21 02:57 | -0.30098 | 102.30907 | 24903 ft | 450 kts | 142° |
| 2026-04-21 02:57 | -0.32420 | 102.33009 | 25194 ft | 452 kts | 131° |
| 2026-04-21 02:57 | -0.34307 | 102.35524 | 25488 ft | 453 kts | 120° |
| 2026-04-21 02:58 | -0.35693 | 102.38346 | 25782 ft | 453 kts | 109° |
| 2026-04-21 02:58 | -0.36545 | 102.41372 | 26055 ft | 454 kts | 101° |
| 2026-04-21 02:58 | -0.37186 | 102.44469 | 26332 ft | 456 kts | 101° |
| 2026-04-21 02:58 | -0.37834 | 102.47577 | 26611 ft | 458 kts | 101° |
| 2026-04-21 02:59 | -0.38484 | 102.50697 | 26880 ft | 460 kts | 101° |
| 2026-04-21 02:59 | -0.39138 | 102.53830 | 27153 ft | 461 kts | 101° |
| 2026-04-21 02:59 | -0.39796 | 102.56970 | 27419 ft | 463 kts | 101° |
| 2026-04-21 02:59 | -0.40457 | 102.60127 | 27671 ft | 465 kts | 101° |
| 2026-04-21 03:00 | -0.41116 | 102.63291 | 27911 ft | 467 kts | 101° |
| 2026-04-21 03:00 | -0.42010 | 102.66409 | 28140 ft | 469 kts | 110° |
| 2026-04-21 03:00 | -0.43375 | 102.69329 | 28372 ft | 471 kts | 119° |
| 2026-04-21 03:00 | -0.45196 | 102.72110 | 28591 ft | 473 kts | 124° |
| 2026-04-21 03:01 | -0.47064 | 102.74822 | 28807 ft | 475 kts | 124° |
| 2026-04-21 03:01 | -0.48911 | 102.77514 | 29020 ft | 476 kts | 124° |
| 2026-04-21 03:01 | -0.50780 | 102.80251 | 29234 ft | 478 kts | 124° |
| 2026-04-21 03:01 | -0.52655 | 102.82997 | 29441 ft | 480 kts | 124° |
| 2026-04-21 03:02 | -0.54539 | 102.85752 | 29681 ft | 480 kts | 124° |
| 2026-04-21 03:02 | -0.56432 | 102.88505 | 29944 ft | 481 kts | 124° |
| 2026-04-21 03:02 | -0.58326 | 102.91255 | 30216 ft | 480 kts | 124° |
| 2026-04-21 03:02 | -0.60214 | 102.93997 | 30546 ft | 479 kts | 124° |
| 2026-04-21 03:03 | -0.62096 | 102.96737 | 30852 ft | 477 kts | 124° |
| 2026-04-21 03:03 | -0.63969 | 102.99469 | 31148 ft | 477 kts | 124° |
| 2026-04-21 03:03 | -0.65841 | 103.02203 | 31443 ft | 476 kts | 124° |
| 2026-04-21 03:03 | -0.67707 | 103.04928 | 31734 ft | 475 kts | 124° |
| 2026-04-21 03:04 | -0.69571 | 103.07651 | 32031 ft | 474 kts | 124° |
| 2026-04-21 03:04 | -0.71430 | 103.10364 | 32326 ft | 473 kts | 124° |
| 2026-04-21 03:04 | -0.73290 | 103.13076 | 32616 ft | 472 kts | 124° |
| 2026-04-21 03:04 | -0.75142 | 103.15783 | 32911 ft | 472 kts | 124° |
| 2026-04-21 03:05 | -0.76995 | 103.18492 | 33185 ft | 472 kts | 124° |
| 2026-04-21 03:05 | -0.78848 | 103.21197 | 33471 ft | 471 kts | 124° |
| 2026-04-21 03:05 | -0.80700 | 103.23893 | 33764 ft | 470 kts | 124° |
| 2026-04-21 03:05 | -0.82551 | 103.26587 | 34058 ft | 470 kts | 124° |
| 2026-04-21 03:06 | -0.84398 | 103.29274 | 34350 ft | 469 kts | 124° |
| 2026-04-21 03:06 | -0.86245 | 103.31961 | 34632 ft | 468 kts | 124° |
| 2026-04-21 03:06 | -0.88097 | 103.34633 | 34897 ft | 468 kts | 126° |
| 2026-04-21 03:06 | -0.90208 | 103.37103 | 35016 ft | 468 kts | 135° |
| 2026-04-21 03:07 | -0.95202 | 103.41269 | 35039 ft | 467 kts | 141° |
| 2026-04-21 03:07 | -1.00263 | 103.45338 | 35040 ft | 467 kts | 141° |
| 2026-04-21 03:08 | -1.05314 | 103.49430 | 35040 ft | 467 kts | 140° |
| 2026-04-21 03:08 | -1.10363 | 103.53534 | 35038 ft | 467 kts | 141° |
| 2026-04-21 03:09 | -1.15368 | 103.57596 | 35039 ft | 467 kts | 141° |
| 2026-04-21 03:09 | -1.20420 | 103.61672 | 35039 ft | 467 kts | 141° |
| 2026-04-21 03:10 | -1.25475 | 103.65755 | 35042 ft | 468 kts | 141° |
| 2026-04-21 03:10 | -1.30527 | 103.69847 | 35044 ft | 467 kts | 141° |
| 2026-04-21 03:11 | -1.35571 | 103.73941 | 35044 ft | 467 kts | 140° |
| 2026-04-21 03:11 | -1.40614 | 103.78026 | 35044 ft | 467 kts | 141° |
| 2026-04-21 03:12 | -1.45659 | 103.82110 | 35043 ft | 466 kts | 141° |
| 2026-04-21 03:12 | -1.50698 | 103.86194 | 35042 ft | 467 kts | 141° |
| 2026-04-21 03:13 | -1.55745 | 103.90281 | 35043 ft | 467 kts | 141° |
| 2026-04-21 03:13 | -1.60794 | 103.94369 | 35045 ft | 467 kts | 141° |
| 2026-04-21 03:14 | -1.65838 | 103.98459 | 35050 ft | 467 kts | 140° |
| 2026-04-21 03:14 | -1.70852 | 104.02524 | 35050 ft | 467 kts | 141° |
| 2026-04-21 03:15 | -1.75939 | 104.06639 | 35052 ft | 467 kts | 141° |
| 2026-04-21 03:15 | -1.80950 | 104.10698 | 35050 ft | 467 kts | 141° |
| 2026-04-21 03:16 | -1.85992 | 104.14787 | 35053 ft | 467 kts | 141° |
| 2026-04-21 03:16 | -1.91033 | 104.18877 | 35050 ft | 467 kts | 141° |
| 2026-04-21 03:17 | -1.96078 | 104.22958 | 35054 ft | 467 kts | 141° |
| 2026-04-21 03:17 | -2.01122 | 104.27046 | 35052 ft | 466 kts | 141° |
| 2026-04-21 03:18 | -2.06150 | 104.31135 | 35051 ft | 466 kts | 140° |
| 2026-04-21 03:18 | -2.11187 | 104.35217 | 35048 ft | 466 kts | 141° |
| 2026-04-21 03:19 | -2.16223 | 104.39292 | 35046 ft | 466 kts | 141° |
| 2026-04-21 03:19 | -2.21253 | 104.43370 | 35045 ft | 466 kts | 141° |
| 2026-04-21 03:20 | -2.26288 | 104.47447 | 35042 ft | 466 kts | 141° |
| 2026-04-21 03:20 | -2.31331 | 104.51525 | 35045 ft | 466 kts | 141° |
| 2026-04-21 03:21 | -2.36369 | 104.55610 | 35047 ft | 466 kts | 141° |
| 2026-04-21 03:21 | -2.41407 | 104.59701 | 35049 ft | 466 kts | 141° |
| 2026-04-21 03:22 | -2.46410 | 104.63760 | 35046 ft | 466 kts | 141° |
| 2026-04-21 03:22 | -2.51448 | 104.67844 | 35044 ft | 466 kts | 141° |
| 2026-04-21 03:23 | -2.56480 | 104.71926 | 35042 ft | 466 kts | 141° |
| 2026-04-21 03:23 | -2.61512 | 104.76006 | 35041 ft | 466 kts | 141° |
| 2026-04-21 03:24 | -2.66542 | 104.80093 | 35042 ft | 466 kts | 141° |
| 2026-04-21 03:24 | -2.71578 | 104.84172 | 35044 ft | 466 kts | 141° |
| 2026-04-21 03:25 | -2.76608 | 104.88248 | 35045 ft | 465 kts | 141° |
| 2026-04-21 03:25 | -2.81641 | 104.92329 | 35045 ft | 465 kts | 141° |
| 2026-04-21 03:26 | -2.86667 | 104.96408 | 35044 ft | 465 kts | 141° |
| 2026-04-21 03:26 | -2.91692 | 105.00494 | 35047 ft | 465 kts | 141° |
| 2026-04-21 03:27 | -2.96720 | 105.04579 | 35050 ft | 466 kts | 141° |
| 2026-04-21 03:27 | -3.01747 | 105.08655 | 35049 ft | 465 kts | 141° |
| 2026-04-21 03:28 | -3.06776 | 105.12736 | 35050 ft | 465 kts | 141° |
| 2026-04-21 03:28 | -3.11802 | 105.16814 | 35049 ft | 465 kts | 141° |
| 2026-04-21 03:29 | -3.16830 | 105.20892 | 35046 ft | 465 kts | 141° |
| 2026-04-21 03:29 | -3.21852 | 105.24972 | 35041 ft | 465 kts | 141° |
| 2026-04-21 03:30 | -3.26874 | 105.29060 | 35042 ft | 466 kts | 141° |
| 2026-04-21 03:30 | -3.31854 | 105.33195 | 35041 ft | 465 kts | 140° |
| 2026-04-21 03:31 | -3.36804 | 105.37369 | 35041 ft | 465 kts | 140° |
| 2026-04-21 03:31 | -3.41726 | 105.41510 | 35041 ft | 465 kts | 140° |
| 2026-04-21 03:32 | -3.46696 | 105.45654 | 35038 ft | 465 kts | 140° |
| 2026-04-21 03:32 | -3.51671 | 105.49797 | 35037 ft | 465 kts | 140° |
| 2026-04-21 03:33 | -3.56636 | 105.53942 | 35036 ft | 465 kts | 140° |
| 2026-04-21 03:33 | -3.60798 | 105.57421 | 35037 ft | 465 kts | 140° |
| 2026-04-21 03:34 | -3.66572 | 105.62249 | 35041 ft | 465 kts | 140° |
| 2026-04-21 03:34 | -3.70704 | 105.65699 | 35042 ft | 465 kts | 140° |
| 2026-04-21 03:35 | -3.75672 | 105.69849 | 35043 ft | 465 kts | 140° |
| 2026-04-21 03:35 | -3.80639 | 105.74004 | 35041 ft | 465 kts | 140° |
| 2026-04-21 03:36 | -3.85591 | 105.78132 | 35041 ft | 465 kts | 140° |
| 2026-04-21 03:36 | -3.90561 | 105.82281 | 35040 ft | 465 kts | 140° |
| 2026-04-21 03:37 | -3.95519 | 105.86429 | 35036 ft | 465 kts | 140° |
| 2026-04-21 03:37 | -4.00479 | 105.90581 | 35036 ft | 465 kts | 140° |
| 2026-04-21 03:38 | -4.05436 | 105.94733 | 35037 ft | 465 kts | 140° |
| 2026-04-21 03:38 | -4.10399 | 105.98881 | 35035 ft | 465 kts | 140° |
| 2026-04-21 03:39 | -4.15361 | 106.03030 | 35036 ft | 465 kts | 140° |
| 2026-04-21 03:39 | -4.20324 | 106.07182 | 35035 ft | 465 kts | 140° |
| 2026-04-21 03:40 | -4.25288 | 106.11340 | 35040 ft | 465 kts | 140° |
| 2026-04-21 03:40 | -4.30252 | 106.15493 | 35042 ft | 465 kts | 140° |
| 2026-04-21 03:41 | -4.35219 | 106.19644 | 35043 ft | 464 kts | 140° |
| 2026-04-21 03:41 | -4.40175 | 106.23795 | 35042 ft | 465 kts | 140° |
| 2026-04-21 03:42 | -4.45141 | 106.27947 | 35042 ft | 465 kts | 140° |
| 2026-04-21 03:42 | -4.50106 | 106.32101 | 35041 ft | 465 kts | 140° |
| 2026-04-21 03:43 | -4.55065 | 106.36261 | 34877 ft | 465 kts | 140° |
| 2026-04-21 03:43 | -4.57566 | 106.38361 | 33748 ft | 474 kts | 140° |
| 2026-04-21 03:43 | -4.60117 | 106.40498 | 32598 ft | 482 kts | 140° |
| 2026-04-21 03:44 | -4.62704 | 106.42664 | 31537 ft | 487 kts | 140° |
| 2026-04-21 03:44 | -4.65319 | 106.44850 | 30577 ft | 489 kts | 140° |
| 2026-04-21 03:44 | -4.67924 | 106.47030 | 29706 ft | 488 kts | 140° |
| 2026-04-21 03:44 | -4.70533 | 106.49211 | 28864 ft | 487 kts | 140° |
| 2026-04-21 03:45 | -4.73124 | 106.51378 | 28121 ft | 483 kts | 140° |
| 2026-04-21 03:45 | -4.75688 | 106.53529 | 27418 ft | 478 kts | 140° |
| 2026-04-21 03:45 | -4.78223 | 106.55660 | 26715 ft | 473 kts | 139° |
| 2026-04-21 03:45 | -4.80727 | 106.57763 | 26012 ft | 468 kts | 139° |
| 2026-04-21 03:46 | -4.83209 | 106.59848 | 25354 ft | 462 kts | 139° |
| 2026-04-21 03:46 | -4.85676 | 106.61835 | 25172 ft | 447 kts | 145° |
| 2026-04-21 03:46 | -4.88336 | 106.63330 | 25043 ft | 431 kts | 155° |
| 2026-04-21 03:46 | -4.91021 | 106.64550 | 24790 ft | 419 kts | 155° |
| 2026-04-21 03:47 | -4.93655 | 106.65749 | 24338 ft | 413 kts | 155° |
| 2026-04-21 03:47 | -4.96257 | 106.66936 | 23829 ft | 409 kts | 155° |
| 2026-04-21 03:47 | -4.98834 | 106.68113 | 23311 ft | 405 kts | 155° |
| 2026-04-21 03:47 | -5.01390 | 106.69280 | 22800 ft | 401 kts | 155° |
| 2026-04-21 03:48 | -5.03911 | 106.70432 | 22305 ft | 398 kts | 154° |
| 2026-04-21 03:48 | -5.06410 | 106.71573 | 21596 ft | 391 kts | 154° |
| 2026-04-21 03:48 | -5.08866 | 106.72696 | 20750 ft | 386 kts | 154° |
| 2026-04-21 03:48 | -5.11294 | 106.73806 | 19924 ft | 380 kts | 154° |
| 2026-04-21 03:49 | -5.13685 | 106.74900 | 19117 ft | 375 kts | 154° |
| 2026-04-21 03:49 | -5.16044 | 106.75978 | 18319 ft | 370 kts | 154° |
| 2026-04-21 03:49 | -5.18371 | 106.77039 | 17541 ft | 365 kts | 154° |
| 2026-04-21 03:49 | -5.20667 | 106.78081 | 16758 ft | 360 kts | 154° |
| 2026-04-21 03:50 | -5.22927 | 106.79103 | 16079 ft | 354 kts | 154° |
| 2026-04-21 03:50 | -5.25156 | 106.80111 | 15554 ft | 350 kts | 154° |
| 2026-04-21 03:50 | -5.27365 | 106.81111 | 15031 ft | 347 kts | 154° |
| 2026-04-21 03:50 | -5.29569 | 106.82109 | 14525 ft | 348 kts | 154° |
| 2026-04-21 03:51 | -5.31772 | 106.83106 | 14096 ft | 346 kts | 154° |
| 2026-04-21 03:51 | -5.33964 | 106.84100 | 13603 ft | 346 kts | 154° |
| 2026-04-21 03:51 | -5.36140 | 106.85088 | 13272 ft | 341 kts | 154° |
| 2026-04-21 03:51 | -5.38298 | 106.86068 | 12839 ft | 339 kts | 154° |
| 2026-04-21 03:52 | -5.40443 | 106.87042 | 12442 ft | 337 kts | 154° |
| 2026-04-21 03:52 | -5.42545 | 106.87994 | 12306 ft | 326 kts | 154° |
| 2026-04-21 03:52 | -5.44579 | 106.88913 | 12184 ft | 316 kts | 154° |
| 2026-04-21 03:52 | -5.46571 | 106.89753 | 12048 ft | 307 kts | 161° |
| 2026-04-21 03:53 | -5.48649 | 106.90135 | 11828 ft | 303 kts | 176° |
| 2026-04-21 03:53 | -5.50755 | 106.90118 | 11503 ft | 301 kts | 179° |
| 2026-04-21 03:53 | -5.52846 | 106.90082 | 11166 ft | 300 kts | 179° |
| 2026-04-21 03:53 | -5.54923 | 106.90049 | 10828 ft | 298 kts | 179° |
| 2026-04-21 03:54 | -5.56989 | 106.90022 | 10485 ft | 296 kts | 179° |
| 2026-04-21 03:54 | -5.59044 | 106.89996 | 10141 ft | 295 kts | 179° |
| 2026-04-21 03:54 | -5.61061 | 106.89966 | 9805 ft | 293 kts | 179° |
| 2026-04-21 03:54 | -5.63092 | 106.89934 | 9456 ft | 291 kts | 179° |
| 2026-04-21 03:55 | -5.65114 | 106.89902 | 9092 ft | 290 kts | 179° |
| 2026-04-21 03:55 | -5.67123 | 106.89872 | 8745 ft | 288 kts | 179° |
| 2026-04-21 03:55 | -5.69121 | 106.89843 | 8378 ft | 286 kts | 179° |
| 2026-04-21 03:55 | -5.71103 | 106.89814 | 8013 ft | 284 kts | 179° |
| 2026-04-21 03:56 | -5.73075 | 106.89783 | 7644 ft | 282 kts | 179° |
| 2026-04-21 03:56 | -5.75035 | 106.89743 | 7266 ft | 281 kts | 179° |
| 2026-04-21 03:56 | -5.76981 | 106.89701 | 6900 ft | 279 kts | 179° |
| 2026-04-21 03:56 | -5.78916 | 106.89657 | 6527 ft | 277 kts | 179° |
| 2026-04-21 03:57 | -5.80837 | 106.89616 | 6154 ft | 275 kts | 179° |
| 2026-04-21 03:57 | -5.82745 | 106.89578 | 5768 ft | 273 kts | 179° |
| 2026-04-21 03:57 | -5.84642 | 106.89539 | 5389 ft | 272 kts | 179° |
| 2026-04-21 03:57 | -5.86527 | 106.89499 | 5004 ft | 270 kts | 180° |
| 2026-04-21 03:58 | -5.88438 | 106.89460 | 4291 ft | 280 kts | 180° |
| 2026-04-21 03:58 | -5.90423 | 106.89420 | 3557 ft | 290 kts | 180° |
| 2026-04-21 03:58 | -5.92419 | 106.89379 | 3261 ft | 282 kts | 180° |
| 2026-04-21 03:58 | -5.94332 | 106.89338 | 3119 ft | 268 kts | 180° |
| 2026-04-21 03:59 | -5.96117 | 106.89035 | 3003 ft | 255 kts | 202° |
| 2026-04-21 03:59 | -5.97547 | 106.88093 | 3007 ft | 238 kts | 218° |
| 2026-04-21 03:59 | -5.98802 | 106.87062 | 3011 ft | 230 kts | 218° |
| 2026-04-21 04:00 | -6.01274 | 106.85026 | 3011 ft | 229 kts | 218° |
| 2026-04-21 04:00 | -6.02508 | 106.84011 | 3013 ft | 229 kts | 218° |
| 2026-04-21 04:00 | -6.03741 | 106.82995 | 3015 ft | 229 kts | 218° |
| 2026-04-21 04:00 | -6.04850 | 106.81859 | 3001 ft | 227 kts | 236° |
| 2026-04-21 04:01 | -6.05510 | 106.80446 | 2818 ft | 223 kts | 248° |
| 2026-04-21 04:01 | -6.06078 | 106.79002 | 2547 ft | 222 kts | 248° |
| 2026-04-21 04:01 | -6.06648 | 106.77562 | 2259 ft | 220 kts | 248° |
| 2026-04-21 04:01 | -6.07208 | 106.76164 | 1986 ft | 209 kts | 248° |
| 2026-04-21 04:02 | -6.07730 | 106.74850 | 1704 ft | 196 kts | 249° |
| 2026-04-21 04:02 | -6.08217 | 106.73629 | 1448 ft | 182 kts | 249° |
| 2026-04-21 04:02 | -6.08672 | 106.72488 | 1213 ft | 171 kts | 249° |
| 2026-04-21 04:02 | -6.09105 | 106.71403 | 991 ft | 163 kts | 250° |
| 2026-04-21 04:03 | -6.09520 | 106.70367 | 777 ft | 157 kts | 250° |
| 2026-04-21 04:03 | -6.09925 | 106.69350 | 577 ft | 156 kts | 250° |
| 2026-04-21 04:03 | -6.10328 | 106.68338 | 384 ft | 155 kts | 248° |
| 2026-04-21 04:03 | -6.10720 | 106.67330 | 169 ft | 154 kts | 250° |
| 2026-04-21 04:04 | -6.11106 | 106.66350 | 46 ft | 146 kts | 250° |
| 2026-04-21 04:04 | -6.11445 | 106.65506 | 37 ft | 108 kts | 247° |
| 2026-04-21 04:04 | -6.11639 | 106.65068 | 38 ft | 29 kts | 217° |
| 2026-04-21 04:04 | -6.11709 | 106.65011 | 40 ft | 8 kts | 221° |
| 2026-04-21 04:05 | -6.11750 | 106.64978 | 40 ft | 7 kts | 218° |
| 2026-04-21 04:05 | -6.11792 | 106.64959 | 39 ft | 6 kts | 182° |
| 2026-04-21 04:05 | -6.11834 | 106.64970 | 39 ft | 6 kts | 160° |
| 2026-04-21 04:05 | -6.11873 | 106.64985 | 36 ft | 6 kts | 159° |
| 2026-04-21 04:06 | -6.11908 | 106.64999 | 37 ft | 5 kts | 159° |
| 2026-04-21 04:06 | -6.11939 | 106.65012 | 38 ft | 4 kts | 153° |
| 2026-04-21 04:06 | -6.11961 | 106.65029 | 38 ft | 4 kts | 141° |
| 2026-04-21 04:06 | -6.11980 | 106.65042 | 38 ft | 3 kts | 147° |
| 2026-04-21 04:07 | -6.11996 | 106.65052 | 38 ft | 2 kts | 147° |
| 2026-04-21 04:07 | -6.12009 | 106.65060 | 38 ft | 2 kts | 148° |
| 2026-04-21 04:07 | -6.12019 | 106.65066 | 38 ft | 1 kts | 147° |
| 2026-04-21 04:07 | -6.12030 | 106.65074 | 38 ft | 2 kts | 147° |
| 2026-04-21 04:08 | -6.12036 | 106.65078 | 38 ft | 1 kts | 147° |
| 2026-04-21 04:08 | -6.12039 | 106.65080 | 37 ft | 0 kts | 147° |
| 2026-04-21 04:08 | -6.12043 | 106.65082 | 38 ft | 0 kts | 147° |